sensor_id;sensor_type;location;lat;lon;timestamp;temperature;humidity
22674;DHT22;11504;43.334;21.918;2022-12-18T00:00:45;6.3;100.0
22674;DHT22;11504;43.334;21.918;2022-12-18T00:05:23;6.2;100.0
22674;DHT22;11504;43.334;21.918;2022-12-18T00:09:59;6.2;100.0
22674;DHT22;11504;43.334;21.918;2022-12-18T00:14:35;6.2;100.0
22674;DHT22;11504;43.334;21.918;2022-12-18T00:19:12;6.2;100.0
22674;DHT22;11504;43.334;21.918;2022-12-18T00:23:50;6.3;100.0
22674;DHT22;11504;43.334;21.918;2022-12-18T00:28:27;6.3;100.0
22674;DHT22;11504;43.334;21.918;2022-12-18T00:33:04;6.4;100.0
22674;DHT22;11504;43.334;21.918;2022-12-18T00:37:40;6.4;100.0
22674;DHT22;11504;43.334;21.918;2022-12-18T00:42:17;6.4;100.0
22674;DHT22;11504;43.334;21.918;2022-12-18T00:46:53;6.4;100.0
22674;DHT22;11504;43.334;21.918;2022-12-18T00:51:29;6.4;100.0
22674;DHT22;11504;43.334;21.918;2022-12-18T00:56:06;6.4;100.0
22674;DHT22;11504;43.334;21.918;2022-12-18T01:00:43;6.4;100.0
22674;DHT22;11504;43.334;21.918;2022-12-18T01:05:20;6.4;100.0
22674;DHT22;11504;43.334;21.918;2022-12-18T01:09:56;6.4;100.0
22674;DHT22;11504;43.334;21.918;2022-12-18T01:14:33;6.5;100.0
22674;DHT22;11504;43.334;21.918;2022-12-18T01:19:09;6.5;100.0
22674;DHT22;11504;43.334;21.918;2022-12-18T01:23:45;6.4;100.0
22674;DHT22;11504;43.334;21.918;2022-12-18T01:28:27;6.4;100.0
22674;DHT22;11504;43.334;21.918;2022-12-18T01:33:04;6.4;100.0
22674;DHT22;11504;43.334;21.918;2022-12-18T01:37:41;6.4;100.0
22674;DHT22;11504;43.334;21.918;2022-12-18T01:42:17;6.4;100.0
22674;DHT22;11504;43.334;21.918;2022-12-18T01:46:53;6.4;100.0
22674;DHT22;11504;43.334;21.918;2022-12-18T01:51:30;6.4;100.0
22674;DHT22;11504;43.334;21.918;2022-12-18T01:56:07;6.4;100.0
22674;DHT22;11504;43.334;21.918;2022-12-18T02:00:49;6.4;100.0
22674;DHT22;11504;43.334;21.918;2022-12-18T02:05:32;6.4;100.0
22674;DHT22;11504;43.334;21.918;2022-12-18T02:10:28;6.4;100.0
22674;DHT22;11504;43.334;21.918;2022-12-18T02:15:26;6.4;100.0
22674;DHT22;11504;43.334;21.918;2022-12-18T02:20:35;6.4;100.0
22674;DHT22;11504;43.334;21.918;2022-12-18T02:25:40;6.4;100.0
22674;DHT22;11504;43.334;21.918;2022-12-18T02:30:53;6.4;100.0
22674;DHT22;11504;43.334;21.918;2022-12-18T02:35:42;6.5;100.0
22674;DHT22;11504;43.334;21.918;2022-12-18T02:40:26;6.5;100.0
22674;DHT22;11504;43.334;21.918;2022-12-18T02:45:06;6.4;100.0
22674;DHT22;11504;43.334;21.918;2022-12-18T02:49:51;6.4;100.0
22674;DHT22;11504;43.334;21.918;2022-12-18T02:54:55;6.4;100.0
22674;DHT22;11504;43.334;21.918;2022-12-18T02:59:56;6.4;100.0
22674;DHT22;11504;43.334;21.918;2022-12-18T03:04:44;6.4;100.0
22674;DHT22;11504;43.334;21.918;2022-12-18T03:09:38;6.4;100.0
22674;DHT22;11504;43.334;21.918;2022-12-18T03:14:25;6.4;100.0
22674;DHT22;11504;43.334;21.918;2022-12-18T03:19:08;6.4;100.0
22674;DHT22;11504;43.334;21.918;2022-12-18T03:23:56;6.4;100.0
22674;DHT22;11504;43.334;21.918;2022-12-18T03:28:39;6.4;100.0
22674;DHT22;11504;43.334;21.918;2022-12-18T03:33:29;6.4;100.0
22674;DHT22;11504;43.334;21.918;2022-12-18T03:38:21;6.4;100.0
22674;DHT22;11504;43.334;21.918;2022-12-18T03:43:02;6.4;100.0
22674;DHT22;11504;43.334;21.918;2022-12-18T03:48:08;6.4;100.0
22674;DHT22;11504;43.334;21.918;2022-12-18T03:53:15;6.3;100.0
22674;DHT22;11504;43.334;21.918;2022-12-18T03:58:28;6.3;100.0
22674;DHT22;11504;43.334;21.918;2022-12-18T04:03:17;6.2;100.0
22674;DHT22;11504;43.334;21.918;2022-12-18T04:07:59;6.2;100.0
22674;DHT22;11504;43.334;21.918;2022-12-18T04:12:38;6.1;100.0
22674;DHT22;11504;43.334;21.918;2022-12-18T04:17:14;6.1;100.0
22674;DHT22;11504;43.334;21.918;2022-12-18T04:21:50;6.1;100.0
22674;DHT22;11504;43.334;21.918;2022-12-18T04:26:27;6.2;100.0
22674;DHT22;11504;43.334;21.918;2022-12-18T04:31:03;6.2;100.0
22674;DHT22;11504;43.334;21.918;2022-12-18T04:35:40;6.2;100.0
22674;DHT22;11504;43.334;21.918;2022-12-18T04:40:17;6.2;100.0
22674;DHT22;11504;43.334;21.918;2022-12-18T04:44:53;6.2;100.0
22674;DHT22;11504;43.334;21.918;2022-12-18T04:49:30;6.2;100.0
22674;DHT22;11504;43.334;21.918;2022-12-18T04:54:06;6.3;100.0
22674;DHT22;11504;43.334;21.918;2022-12-18T04:58:43;6.3;100.0
22674;DHT22;11504;43.334;21.918;2022-12-18T05:03:20;6.3;100.0
22674;DHT22;11504;43.334;21.918;2022-12-18T05:07:57;6.3;100.0
22674;DHT22;11504;43.334;21.918;2022-12-18T05:12:33;6.3;100.0
22674;DHT22;11504;43.334;21.918;2022-12-18T05:17:09;6.3;100.0
22674;DHT22;11504;43.334;21.918;2022-12-18T05:21:45;6.3;100.0
22674;DHT22;11504;43.334;21.918;2022-12-18T05:26:21;6.2;100.0
22674;DHT22;11504;43.334;21.918;2022-12-18T05:31:00;6.2;100.0
22674;DHT22;11504;43.334;21.918;2022-12-18T05:35:39;6.1;100.0
22674;DHT22;11504;43.334;21.918;2022-12-18T05:40:15;6.1;100.0
22674;DHT22;11504;43.334;21.918;2022-12-18T05:44:51;6.0;100.0
22674;DHT22;11504;43.334;21.918;2022-12-18T05:49:27;6.0;100.0
22674;DHT22;11504;43.334;21.918;2022-12-18T05:54:04;6.0;100.0
22674;DHT22;11504;43.334;21.918;2022-12-18T05:58:40;6.0;100.0
22674;DHT22;11504;43.334;21.918;2022-12-18T06:03:18;6.0;100.0
22674;DHT22;11504;43.334;21.918;2022-12-18T06:07:54;6.0;100.0
22674;DHT22;11504;43.334;21.918;2022-12-18T06:12:30;5.9;100.0
22674;DHT22;11504;43.334;21.918;2022-12-18T06:17:07;5.9;100.0
22674;DHT22;11504;43.334;21.918;2022-12-18T06:21:44;5.9;100.0
22674;DHT22;11504;43.334;21.918;2022-12-18T06:26:20;5.9;100.0
22674;DHT22;11504;43.334;21.918;2022-12-18T06:30:58;5.9;100.0
22674;DHT22;11504;43.334;21.918;2022-12-18T06:35:35;5.9;100.0
22674;DHT22;11504;43.334;21.918;2022-12-18T06:40:12;5.9;100.0
22674;DHT22;11504;43.334;21.918;2022-12-18T06:44:48;6.0;100.0
22674;DHT22;11504;43.334;21.918;2022-12-18T06:49:25;6.0;100.0
22674;DHT22;11504;43.334;21.918;2022-12-18T06:54:01;6.0;100.0
22674;DHT22;11504;43.334;21.918;2022-12-18T06:58:38;6.0;100.0
22674;DHT22;11504;43.334;21.918;2022-12-18T07:03:15;6.0;100.0
22674;DHT22;11504;43.334;21.918;2022-12-18T07:07:51;6.0;100.0
22674;DHT22;11504;43.334;21.918;2022-12-18T07:12:27;6.1;100.0
22674;DHT22;11504;43.334;21.918;2022-12-18T07:17:03;6.1;100.0
22674;DHT22;11504;43.334;21.918;2022-12-18T07:21:39;6.1;100.0
22674;DHT22;11504;43.334;21.918;2022-12-18T07:26:17;6.2;100.0
22674;DHT22;11504;43.334;21.918;2022-12-18T07:30:58;6.2;100.0
22674;DHT22;11504;43.334;21.918;2022-12-18T07:35:38;6.4;100.0
22674;DHT22;11504;43.334;21.918;2022-12-18T07:40:15;6.4;100.0
22674;DHT22;11504;43.334;21.918;2022-12-18T07:44:51;6.4;100.0
22674;DHT22;11504;43.334;21.918;2022-12-18T07:49:28;6.4;100.0
22674;DHT22;11504;43.334;21.918;2022-12-18T07:54:04;6.4;100.0
22674;DHT22;11504;43.334;21.918;2022-12-18T07:58:40;6.4;100.0
22674;DHT22;11504;43.334;21.918;2022-12-18T08:03:16;6.4;100.0
22674;DHT22;11504;43.334;21.918;2022-12-18T08:07:53;6.4;100.0
22674;DHT22;11504;43.334;21.918;2022-12-18T08:12:30;6.3;100.0
22674;DHT22;11504;43.334;21.918;2022-12-18T08:17:06;6.3;100.0
22674;DHT22;11504;43.334;21.918;2022-12-18T08:21:42;6.3;100.0
22674;DHT22;11504;43.334;21.918;2022-12-18T08:26:19;6.5;100.0
22674;DHT22;11504;43.334;21.918;2022-12-18T08:30:56;6.5;100.0
22674;DHT22;11504;43.334;21.918;2022-12-18T08:35:34;6.7;100.0
22674;DHT22;11504;43.334;21.918;2022-12-18T08:40:11;6.7;100.0
22674;DHT22;11504;43.334;21.918;2022-12-18T08:44:48;6.9;100.0
22674;DHT22;11504;43.334;21.918;2022-12-18T08:49:24;6.9;100.0
22674;DHT22;11504;43.334;21.918;2022-12-18T08:54:02;7.1;100.0
22674;DHT22;11504;43.334;21.918;2022-12-18T08:58:41;7.1;100.0
22674;DHT22;11504;43.334;21.918;2022-12-18T09:03:19;7.3;100.0
22674;DHT22;11504;43.334;21.918;2022-12-18T09:07:56;7.3;100.0
22674;DHT22;11504;43.334;21.918;2022-12-18T09:12:32;7.5;100.0
22674;DHT22;11504;43.334;21.918;2022-12-18T09:17:09;7.5;100.0
22674;DHT22;11504;43.334;21.918;2022-12-18T09:21:45;7.5;100.0
22674;DHT22;11504;43.334;21.918;2022-12-18T09:26:23;7.4;100.0
22674;DHT22;11504;43.334;21.918;2022-12-18T09:31:05;7.4;100.0
22674;DHT22;11504;43.334;21.918;2022-12-18T09:35:47;7.2;100.0
22674;DHT22;11504;43.334;21.918;2022-12-18T09:40:26;7.2;100.0
22674;DHT22;11504;43.334;21.918;2022-12-18T09:45:18;7.2;100.0
22674;DHT22;11504;43.334;21.918;2022-12-18T09:49:58;7.2;100.0
22674;DHT22;11504;43.334;21.918;2022-12-18T09:54:52;7.3;100.0
22674;DHT22;11504;43.334;21.918;2022-12-18T09:59:37;7.3;100.0
22674;DHT22;11504;43.334;21.918;2022-12-18T10:04:15;7.5;100.0
22674;DHT22;11504;43.334;21.918;2022-12-18T10:08:56;7.5;100.0
22674;DHT22;11504;43.334;21.918;2022-12-18T10:13:58;7.7;100.0
22674;DHT22;11504;43.334;21.918;2022-12-18T10:19:09;7.7;100.0
22674;DHT22;11504;43.334;21.918;2022-12-18T10:24:20;7.9;100.0
22674;DHT22;11504;43.334;21.918;2022-12-18T10:29:18;7.9;100.0
22674;DHT22;11504;43.334;21.918;2022-12-18T10:33:55;8.1;100.0
22674;DHT22;11504;43.334;21.918;2022-12-18T10:38:32;8.1;100.0
22674;DHT22;11504;43.334;21.918;2022-12-18T10:43:11;8.1;100.0
22674;DHT22;11504;43.334;21.918;2022-12-18T10:47:50;8.1;100.0
22674;DHT22;11504;43.334;21.918;2022-12-18T10:52:27;8.1;100.0
22674;DHT22;11504;43.334;21.918;2022-12-18T10:57:37;8.2;100.0
22674;DHT22;11504;43.334;21.918;2022-12-18T11:02:27;8.2;100.0
22674;DHT22;11504;43.334;21.918;2022-12-18T11:07:11;8.2;100.0
22674;DHT22;11504;43.334;21.918;2022-12-18T11:11:48;8.2;100.0
22674;DHT22;11504;43.334;21.918;2022-12-18T11:16:26;8.2;100.0
22674;DHT22;11504;43.334;21.918;2022-12-18T11:21:07;8.2;100.0
22674;DHT22;11504;43.334;21.918;2022-12-18T11:25:54;8.4;100.0
22674;DHT22;11504;43.334;21.918;2022-12-18T11:30:38;8.4;100.0
22674;DHT22;11504;43.334;21.918;2022-12-18T11:35:17;8.6;100.0
22674;DHT22;11504;43.334;21.918;2022-12-18T11:40:18;8.6;100.0
22674;DHT22;11504;43.334;21.918;2022-12-18T11:45:24;8.6;100.0
22674;DHT22;11504;43.334;21.918;2022-12-18T11:50:17;8.6;100.0
22674;DHT22;11504;43.334;21.918;2022-12-18T11:55:11;8.5;100.0
22674;DHT22;11504;43.334;21.918;2022-12-18T12:00:24;8.5;100.0
22674;DHT22;11504;43.334;21.918;2022-12-18T12:05:12;8.1;100.0
22674;DHT22;11504;43.334;21.918;2022-12-18T12:10:32;8.1;100.0
22674;DHT22;11504;43.334;21.918;2022-12-18T12:15:44;7.7;100.0
22674;DHT22;11504;43.334;21.918;2022-12-18T12:21:00;7.7;100.0
22674;DHT22;11504;43.334;21.918;2022-12-18T12:26:01;7.6;100.0
22674;DHT22;11504;43.334;21.918;2022-12-18T12:30:53;7.6;100.0
22674;DHT22;11504;43.334;21.918;2022-12-18T12:36:02;7.4;100.0
22674;DHT22;11504;43.334;21.918;2022-12-18T12:41:07;7.4;100.0
22674;DHT22;11504;43.334;21.918;2022-12-18T12:45:58;7.4;100.0
22674;DHT22;11504;43.334;21.918;2022-12-18T12:50:44;7.4;100.0
22674;DHT22;11504;43.334;21.918;2022-12-18T12:55:27;7.5;100.0
22674;DHT22;11504;43.334;21.918;2022-12-18T13:00:09;7.5;100.0
22674;DHT22;11504;43.334;21.918;2022-12-18T13:04:57;7.4;100.0
22674;DHT22;11504;43.334;21.918;2022-12-18T13:10:22;7.4;100.0
22674;DHT22;11504;43.334;21.918;2022-12-18T13:15:13;7.4;100.0
22674;DHT22;11504;43.334;21.918;2022-12-18T13:20:20;7.4;100.0
22674;DHT22;11504;43.334;21.918;2022-12-18T13:24:56;7.2;100.0
22674;DHT22;11504;43.334;21.918;2022-12-18T13:29:47;7.2;100.0
22674;DHT22;11504;43.334;21.918;2022-12-18T13:34:25;7.1;100.0
22674;DHT22;11504;43.334;21.918;2022-12-18T13:39:23;7.1;100.0
22674;DHT22;11504;43.334;21.918;2022-12-18T13:44:12;7.1;100.0
22674;DHT22;11504;43.334;21.918;2022-12-18T13:49:23;7.1;100.0
22674;DHT22;11504;43.334;21.918;2022-12-18T13:54:18;7.1;100.0
22674;DHT22;11504;43.334;21.918;2022-12-18T13:59:13;7.1;100.0
22674;DHT22;11504;43.334;21.918;2022-12-18T14:04:09;7.0;100.0
22674;DHT22;11504;43.334;21.918;2022-12-18T14:08:55;7.0;100.0
22674;DHT22;11504;43.334;21.918;2022-12-18T14:13:36;7.0;100.0
22674;DHT22;11504;43.334;21.918;2022-12-18T14:18:21;7.0;100.0
22674;DHT22;11504;43.334;21.918;2022-12-18T14:23:26;6.9;100.0
22674;DHT22;11504;43.334;21.918;2022-12-18T14:28:14;6.9;100.0
22674;DHT22;11504;43.334;21.918;2022-12-18T14:32:59;6.8;100.0
22674;DHT22;11504;43.334;21.918;2022-12-18T14:37:49;6.8;100.0
22674;DHT22;11504;43.334;21.918;2022-12-18T14:42:26;6.8;100.0
22674;DHT22;11504;43.334;21.918;2022-12-18T14:47:04;6.6;100.0
22674;DHT22;11504;43.334;21.918;2022-12-18T14:51:47;6.6;100.0
22674;DHT22;11504;43.334;21.918;2022-12-18T14:56:31;6.5;100.0
22674;DHT22;11504;43.334;21.918;2022-12-18T15:01:22;6.5;100.0
22674;DHT22;11504;43.334;21.918;2022-12-18T15:06:27;6.4;100.0
22674;DHT22;11504;43.334;21.918;2022-12-18T15:11:25;6.4;100.0
22674;DHT22;11504;43.334;21.918;2022-12-18T15:16:11;6.3;100.0
22674;DHT22;11504;43.334;21.918;2022-12-18T15:20:50;6.3;100.0
22674;DHT22;11504;43.334;21.918;2022-12-18T15:25:32;6.4;100.0
22674;DHT22;11504;43.334;21.918;2022-12-18T15:30:20;6.4;100.0
22674;DHT22;11504;43.334;21.918;2022-12-18T15:35:03;6.4;100.0
22674;DHT22;11504;43.334;21.918;2022-12-18T15:39:55;6.4;100.0
22674;DHT22;11504;43.334;21.918;2022-12-18T15:44:31;6.6;100.0
22674;DHT22;11504;43.334;21.918;2022-12-18T15:49:08;6.6;100.0
22674;DHT22;11504;43.334;21.918;2022-12-18T15:53:45;6.8;100.0
22674;DHT22;11504;43.334;21.918;2022-12-18T15:58:25;6.8;100.0
22674;DHT22;11504;43.334;21.918;2022-12-18T16:03:01;6.8;100.0
22674;DHT22;11504;43.334;21.918;2022-12-18T16:07:38;6.8;100.0
22674;DHT22;11504;43.334;21.918;2022-12-18T16:12:16;6.8;100.0
22674;DHT22;11504;43.334;21.918;2022-12-18T16:16:59;6.8;100.0
22674;DHT22;11504;43.334;21.918;2022-12-18T16:21:38;6.8;100.0
22674;DHT22;11504;43.334;21.918;2022-12-18T16:26:15;6.8;100.0
22674;DHT22;11504;43.334;21.918;2022-12-18T16:30:51;6.8;100.0
22674;DHT22;11504;43.334;21.918;2022-12-18T16:35:27;6.8;100.0
22674;DHT22;11504;43.334;21.918;2022-12-18T16:40:04;6.8;100.0
22674;DHT22;11504;43.334;21.918;2022-12-18T16:44:46;6.4;100.0
22674;DHT22;11504;43.334;21.918;2022-12-18T16:49:25;6.4;100.0
22674;DHT22;11504;43.334;21.918;2022-12-18T16:54:01;6.1;100.0
22674;DHT22;11504;43.334;21.918;2022-12-18T16:58:37;6.1;100.0
22674;DHT22;11504;43.334;21.918;2022-12-18T17:03:14;5.9;100.0
22674;DHT22;11504;43.334;21.918;2022-12-18T17:07:50;5.9;100.0
22674;DHT22;11504;43.334;21.918;2022-12-18T17:12:26;5.9;100.0
22674;DHT22;11504;43.334;21.918;2022-12-18T17:17:03;5.7;100.0
22674;DHT22;11504;43.334;21.918;2022-12-18T17:21:40;5.7;100.0
22674;DHT22;11504;43.334;21.918;2022-12-18T17:26:17;5.6;100.0
22674;DHT22;11504;43.334;21.918;2022-12-18T17:30:54;5.6;100.0
22674;DHT22;11504;43.334;21.918;2022-12-18T17:35:31;5.6;100.0
22674;DHT22;11504;43.334;21.918;2022-12-18T17:40:08;5.6;100.0
22674;DHT22;11504;43.334;21.918;2022-12-18T17:44:46;5.5;100.0
22674;DHT22;11504;43.334;21.918;2022-12-18T17:49:22;5.5;100.0
22674;DHT22;11504;43.334;21.918;2022-12-18T17:53:58;5.4;100.0
22674;DHT22;11504;43.334;21.918;2022-12-18T17:58:35;5.4;100.0
22674;DHT22;11504;43.334;21.918;2022-12-18T18:03:12;5.4;100.0
22674;DHT22;11504;43.334;21.918;2022-12-18T18:07:49;5.4;100.0
22674;DHT22;11504;43.334;21.918;2022-12-18T18:12:26;5.4;100.0
22674;DHT22;11504;43.334;21.918;2022-12-18T18:17:02;5.4;100.0
22674;DHT22;11504;43.334;21.918;2022-12-18T18:21:39;5.4;100.0
22674;DHT22;11504;43.334;21.918;2022-12-18T18:26:21;5.2;100.0
22674;DHT22;11504;43.334;21.918;2022-12-18T18:30:57;5.2;100.0
22674;DHT22;11504;43.334;21.918;2022-12-18T18:35:41;5.1;100.0
22674;DHT22;11504;43.334;21.918;2022-12-18T18:40:17;5.1;100.0
22674;DHT22;11504;43.334;21.918;2022-12-18T18:44:54;5.0;100.0
22674;DHT22;11504;43.334;21.918;2022-12-18T18:49:29;5.0;100.0
22674;DHT22;11504;43.334;21.918;2022-12-18T18:54:05;4.9;100.0
22674;DHT22;11504;43.334;21.918;2022-12-18T18:58:43;4.9;100.0
22674;DHT22;11504;43.334;21.918;2022-12-18T19:03:19;4.8;100.0
22674;DHT22;11504;43.334;21.918;2022-12-18T19:07:55;4.8;100.0
22674;DHT22;11504;43.334;21.918;2022-12-18T19:12:32;4.8;100.0
22674;DHT22;11504;43.334;21.918;2022-12-18T19:17:09;4.7;100.0
22674;DHT22;11504;43.334;21.918;2022-12-18T19:21:45;4.7;100.0
22674;DHT22;11504;43.334;21.918;2022-12-18T19:26:23;4.8;100.0
22674;DHT22;11504;43.334;21.918;2022-12-18T19:31:02;4.8;100.0
22674;DHT22;11504;43.334;21.918;2022-12-18T19:35:45;5.0;100.0
22674;DHT22;11504;43.334;21.918;2022-12-18T19:40:21;5.0;100.0
22674;DHT22;11504;43.334;21.918;2022-12-18T19:44:58;5.0;100.0
22674;DHT22;11504;43.334;21.918;2022-12-18T19:49:34;5.0;100.0
22674;DHT22;11504;43.334;21.918;2022-12-18T20:03:24;5.0;100.0
22674;DHT22;11504;43.334;21.918;2022-12-18T20:08:00;5.0;100.0
22674;DHT22;11504;43.334;21.918;2022-12-18T20:12:36;5.0;100.0
22674;DHT22;11504;43.334;21.918;2022-12-18T20:17:12;5.0;100.0
22674;DHT22;11504;43.334;21.918;2022-12-18T20:21:49;5.0;100.0
22674;DHT22;11504;43.334;21.918;2022-12-18T20:26:26;5.0;100.0
22674;DHT22;11504;43.334;21.918;2022-12-18T20:31:05;5.0;100.0
22674;DHT22;11504;43.334;21.918;2022-12-18T20:35:42;5.1;100.0
22674;DHT22;11504;43.334;21.918;2022-12-18T20:40:18;5.1;100.0
22674;DHT22;11504;43.334;21.918;2022-12-18T20:44:54;5.2;100.0
22674;DHT22;11504;43.334;21.918;2022-12-18T20:49:30;5.2;100.0
22674;DHT22;11504;43.334;21.918;2022-12-18T20:54:06;5.4;100.0
22674;DHT22;11504;43.334;21.918;2022-12-18T20:58:44;5.4;100.0
22674;DHT22;11504;43.334;21.918;2022-12-18T21:03:20;5.4;100.0
22674;DHT22;11504;43.334;21.918;2022-12-18T21:07:56;5.4;100.0
22674;DHT22;11504;43.334;21.918;2022-12-18T21:12:32;5.4;100.0
22674;DHT22;11504;43.334;21.918;2022-12-18T21:17:09;5.3;100.0
22674;DHT22;11504;43.334;21.918;2022-12-18T21:21:46;5.3;100.0
22674;DHT22;11504;43.334;21.918;2022-12-18T21:26:26;5.2;100.0
22674;DHT22;11504;43.334;21.918;2022-12-18T21:31:02;5.2;100.0
22674;DHT22;11504;43.334;21.918;2022-12-18T21:35:38;5.1;100.0
22674;DHT22;11504;43.334;21.918;2022-12-18T21:40:14;5.1;100.0
22674;DHT22;11504;43.334;21.918;2022-12-18T21:44:50;4.9;100.0
22674;DHT22;11504;43.334;21.918;2022-12-18T21:49:26;4.9;100.0
22674;DHT22;11504;43.334;21.918;2022-12-18T21:54:03;4.7;100.0
22674;DHT22;11504;43.334;21.918;2022-12-18T21:58:39;4.7;100.0
22674;DHT22;11504;43.334;21.918;2022-12-18T22:03:16;4.7;100.0
22674;DHT22;11504;43.334;21.918;2022-12-18T22:07:52;4.8;100.0
22674;DHT22;11504;43.334;21.918;2022-12-18T22:12:29;4.8;100.0
22674;DHT22;11504;43.334;21.918;2022-12-18T22:17:05;5.0;100.0
22674;DHT22;11504;43.334;21.918;2022-12-18T22:21:45;5.0;100.0
22674;DHT22;11504;43.334;21.918;2022-12-18T22:26:27;5.0;100.0
22674;DHT22;11504;43.334;21.918;2022-12-18T22:31:07;5.0;100.0
22674;DHT22;11504;43.334;21.918;2022-12-18T22:35:43;5.1;100.0
22674;DHT22;11504;43.334;21.918;2022-12-18T22:40:22;5.1;100.0
22674;DHT22;11504;43.334;21.918;2022-12-18T22:44:59;4.8;100.0
22674;DHT22;11504;43.334;21.918;2022-12-18T22:49:36;4.8;100.0
22674;DHT22;11504;43.334;21.918;2022-12-18T22:54:13;4.6;100.0
22674;DHT22;11504;43.334;21.918;2022-12-18T22:58:51;4.6;100.0
22674;DHT22;11504;43.334;21.918;2022-12-18T23:03:27;4.6;100.0
22674;DHT22;11504;43.334;21.918;2022-12-18T23:08:04;4.6;100.0
22674;DHT22;11504;43.334;21.918;2022-12-18T23:12:40;4.6;100.0
22674;DHT22;11504;43.334;21.918;2022-12-18T23:17:16;4.7;100.0
22674;DHT22;11504;43.334;21.918;2022-12-18T23:21:52;4.7;100.0
22674;DHT22;11504;43.334;21.918;2022-12-18T23:26:28;4.5;100.0
22674;DHT22;11504;43.334;21.918;2022-12-18T23:31:11;4.5;100.0
22674;DHT22;11504;43.334;21.918;2022-12-18T23:35:50;4.3;100.0
22674;DHT22;11504;43.334;21.918;2022-12-18T23:40:28;4.3;100.0
22674;DHT22;11504;43.334;21.918;2022-12-18T23:45:07;4.3;100.0
22674;DHT22;11504;43.334;21.918;2022-12-18T23:49:44;4.3;100.0
22674;DHT22;11504;43.334;21.918;2022-12-18T23:54:20;4.3;100.0
22674;DHT22;11504;43.334;21.918;2022-12-18T23:58:56;4.3;100.0
